Time;durP1;ratioP1;P1;durP2;ratioP2;P2;SDS_P1;SDS_P2;PMS_P1;PMS_P2;Temp;Humidity;BMP_temperature;BMP_pressure;BME280_temperature;BME280_humidity;BME280_pressure;Samples;Min_cycle;Max_cycle;Signal;HPM_P1;HPM_P2
2023/07/27 00:01:44;;;;;;;49.67;45.88;;;;;;;23.01;100.00;100017.97;5046359;28;20041;-80
2023/07/27 00:04:11;;;;;;;45.80;42.30;;;;;;;22.41;100.00;100021.66;5044286;28;20072;-78
2023/07/27 00:06:38;;;;;;;49.35;45.20;;;;;;;21.55;100.00;100024.03;5043513;28;20064;-79
2023/07/27 00:09:04;;;;;;;46.30;42.28;;;;;;;21.25;100.00;100028.78;5048806;28;20055;-79
2023/07/27 00:11:31;;;;;;;54.13;49.80;;;;;;;22.14;100.00;100027.81;5043495;28;20433;-79
2023/07/27 00:14:00;;;;;;;51.33;46.72;;;;;;;20.68;100.00;100033.34;5049441;28;20053;-80
2023/07/27 00:16:26;;;;;;;50.35;46.10;;;;;;;20.78;100.00;100042.09;5049212;28;20045;-76
2023/07/27 00:18:53;;;;;;;50.33;45.42;;;;;;;21.49;100.00;100039.50;5048506;28;20064;-79
2023/07/27 00:21:21;;;;;;;45.13;41.00;;;;;;;21.17;100.00;100051.84;5048708;28;20485;-79
2023/07/27 00:23:49;;;;;;;45.03;40.72;;;;;;;22.32;100.00;100045.88;5049449;28;20053;-76
2023/07/27 00:26:16;;;;;;;39.53;35.92;;;;;;;21.64;100.00;100041.16;5049151;28;20068;-77
2023/07/27 00:28:42;;;;;;;50.95;46.20;;;;;;;20.50;100.00;100034.91;5049599;28;20413;-77
2023/07/27 00:31:11;;;;;;;45.95;41.58;;;;;;;20.41;100.00;100036.63;5049055;28;20041;-76
2023/07/27 00:33:37;;;;;;;48.47;44.17;;;;;;;20.49;100.00;100049.50;5049121;28;20049;-76
2023/07/27 00:36:04;;;;;;;47.00;42.70;;;;;;;20.65;100.00;100052.81;5043984;28;20049;-76
2023/07/27 00:38:31;;;;;;;50.85;46.20;;;;;;;20.77;100.00;100056.69;5046199;28;20041;-76
2023/07/27 00:40:58;;;;;;;44.70;41.10;;;;;;;21.38;100.00;100035.34;5045699;28;20041;-76
2023/07/27 00:43:25;;;;;;;44.65;41.05;;;;;;;20.62;100.00;100037.22;5039105;28;20045;-76
2023/07/27 00:45:52;;;;;;;44.40;40.58;;;;;;;21.07;100.00;100038.50;5043849;28;20060;-76
2023/07/27 00:48:21;;;;;;;50.88;46.42;;;;;;;20.78;100.00;100036.72;5046092;28;21427;-76
2023/07/27 00:50:48;;;;;;;53.13;49.05;;;;;;;20.64;100.00;100035.84;5047934;28;20049;-76
2023/07/27 00:53:16;;;;;;;48.72;44.80;;;;;;;20.80;100.00;100045.34;5049274;28;20052;-76
2023/07/27 00:55:44;;;;;;;47.92;43.83;;;;;;;20.74;100.00;100041.09;5048648;28;20060;-76
2023/07/27 00:58:11;;;;;;;46.28;41.67;;;;;;;20.30;100.00;100042.16;5048883;28;20048;-76
2023/07/27 01:00:39;;;;;;;49.25;44.85;;;;;;;20.46;100.00;100048.16;5048810;28;20053;-76
2023/07/27 01:03:08;;;;;;;45.53;41.85;;;;;;;20.61;100.00;100059.91;5048752;28;20045;-76
2023/07/27 01:05:36;;;;;;;43.03;39.55;;;;;;;20.51;100.00;100058.06;5051771;28;20076;-77
2023/07/27 01:08:04;;;;;;;41.13;37.30;;;;;;;20.64;100.00;100060.13;5052375;28;20432;-76
2023/07/27 01:10:43;;;;;;;51.08;46.85;;;;;;;20.54;100.00;100068.31;5052019;28;20052;-76
2023/07/27 01:13:20;;;;;;;43.45;39.42;;;;;;;20.45;100.00;100065.41;5045301;28;20432;-76
2023/07/27 01:15:52;;;;;;;48.70;44.30;;;;;;;20.50;100.00;100064.56;5052115;28;20048;-76
2023/07/27 01:18:28;;;;;;;43.20;40.00;;;;;;;20.83;100.00;100068.25;5052193;28;20041;-80
2023/07/27 01:21:13;;;;;;;43.47;40.17;;;;;;;20.93;100.00;100070.78;5047930;28;20432;-80
2023/07/27 01:24:14;;;;;;;40.15;36.85;;;;;;;20.08;100.00;100071.47;5050456;28;20052;-79
2023/07/27 01:26:56;;;;;;;44.13;40.55;;;;;;;20.10;100.00;100077.41;5044506;28;20444;-76
2023/07/27 01:30:02;;;;;;;45.95;42.28;;;;;;;20.01;100.00;100082.59;5044252;28;20053;-79
2023/07/27 01:32:34;;;;;;;41.63;38.45;;;;;;;20.03;100.00;100093.91;5040758;28;20584;-79
2023/07/27 01:35:03;;;;;;;39.50;36.60;;;;;;;20.32;100.00;100087.69;5046732;28;20049;-76
2023/07/27 01:37:31;;;;;;;41.40;38.10;;;;;;;20.30;100.00;100090.69;5051736;28;20115;-76
2023/07/27 01:40:01;;;;;;;46.15;42.67;;;;;;;20.30;100.00;100096.06;5050655;28;20483;-76
2023/07/27 01:42:31;;;;;;;45.55;42.22;;;;;;;20.12;100.00;100104.84;5051191;28;20127;-79
2023/07/27 01:44:59;;;;;;;40.75;38.25;;;;;;;22.03;100.00;100096.69;5052223;28;20429;-80
2023/07/27 01:47:27;;;;;;;43.45;40.75;;;;;;;22.18;100.00;100104.59;5052407;28;20053;-79
2023/07/27 01:49:56;;;;;;;46.38;43.35;;;;;;;20.48;100.00;100116.09;5051459;28;20060;-80
2023/07/27 01:52:25;;;;;;;48.25;45.13;;;;;;;20.47;100.00;100111.78;5048405;28;20041;-79
2023/07/27 01:54:53;;;;;;;34.25;31.60;;;;;;;21.16;100.00;100106.94;5048240;28;20044;-79
2023/07/27 01:57:21;;;;;;;32.20;29.88;;;;;;;21.01;100.00;100099.06;5047645;28;20378;-79
2023/07/27 01:59:48;;;;;;;30.17;28.00;;;;;;;20.36;100.00;100096.81;5047792;28;20051;-80
2023/07/27 02:02:16;;;;;;;38.08;35.38;;;;;;;20.83;100.00;100102.53;5045996;28;20416;-80
2023/07/27 02:04:43;;;;;;;41.90;39.22;;;;;;;21.42;100.00;100109.31;5048515;28;20442;-80
2023/07/27 02:07:11;;;;;;;40.97;38.65;;;;;;;21.00;100.00;100121.75;5044827;28;20505;-79
2023/07/27 02:09:38;;;;;;;43.65;41.05;;;;;;;19.84;100.00;100101.88;5044296;28;20056;-80
2023/07/27 02:12:12;;;;;;;43.92;41.67;;;;;;;21.12;100.00;100094.31;5048079;28;20063;-79
2023/07/27 02:14:45;;;;;;;43.67;41.17;;;;;;;21.25;100.00;100099.78;5043148;28;20073;-80
2023/07/27 02:17:21;;;;;;;40.95;38.55;;;;;;;20.28;100.00;100105.53;5044786;28;20671;-80
2023/07/27 02:19:52;;;;;;;46.38;43.88;;;;;;;20.59;100.00;100114.13;5048439;28;20045;-80
2023/07/27 02:22:22;;;;;;;45.65;43.13;;;;;;;20.85;100.00;100111.94;5047657;28;20041;-80
2023/07/27 02:24:50;;;;;;;48.90;46.40;;;;;;;21.14;100.00;100098.31;5048142;28;20059;-79
2023/07/27 02:27:16;;;;;;;44.20;41.60;;;;;;;19.78;100.00;100116.47;5048700;28;20045;-79
2023/07/27 02:29:44;;;;;;;47.83;45.22;;;;;;;20.60;100.00;100123.81;5043550;28;20044;-79
2023/07/27 02:32:10;;;;;;;48.33;45.72;;;;;;;20.40;100.00;100122.13;5046973;28;20124;-76
2023/07/27 02:34:38;;;;;;;40.45;38.10;;;;;;;20.35;100.00;100125.66;5049992;28;20516;-76
2023/07/27 02:37:05;;;;;;;42.20;39.58;;;;;;;20.46;100.00;100129.06;5045967;28;20516;-76
2023/07/27 02:39:33;;;;;;;50.83;47.92;;;;;;;19.33;100.00;100136.41;5047017;28;20049;-76
2023/07/27 02:42:00;;;;;;;51.85;48.75;;;;;;;20.25;100.00;100135.75;5047704;28;20486;-77
2023/07/27 02:44:27;;;;;;;54.10;51.00;;;;;;;19.32;100.00;100140.19;5044829;28;20052;-76
2023/07/27 02:46:54;;;;;;;41.63;39.17;;;;;;;20.43;100.00;100136.94;5044105;28;20064;-76
2023/07/27 02:49:21;;;;;;;44.15;41.30;;;;;;;20.09;100.00;100148.56;5044895;28;20049;-76
2023/07/27 02:51:48;;;;;;;44.42;41.47;;;;;;;19.31;100.00;100142.09;5047493;28;20421;-77
2023/07/27 02:54:17;;;;;;;39.20;36.65;;;;;;;19.40;100.00;100143.09;5047663;28;20444;-76
2023/07/27 02:56:46;;;;;;;32.45;30.20;;;;;;;19.38;100.00;100145.25;5047356;28;20045;-77
2023/07/27 02:59:13;;;;;;;28.33;26.10;;;;;;;19.83;100.00;100146.06;5045136;28;20048;-76
2023/07/27 03:01:40;;;;;;;29.90;27.67;;;;;;;19.88;100.00;100164.13;5048769;28;20509;-76
2023/07/27 03:04:07;;;;;;;26.83;25.13;;;;;;;20.17;100.00;100157.94;5047605;28;20045;-79
2023/07/27 03:06:35;;;;;;;31.17;28.73;;;;;;;20.04;100.00;100156.69;5046731;28;20049;-79
2023/07/27 03:09:02;;;;;;;26.92;24.98;;;;;;;19.92;100.00;100167.84;5046598;28;20491;-79
2023/07/27 03:11:29;;;;;;;26.58;24.60;;;;;;;19.33;100.00;100174.91;5048702;28;20045;-79
2023/07/27 03:13:58;;;;;;;28.17;26.00;;;;;;;19.57;100.00;100161.56;5042962;28;20416;-79
2023/07/27 03:16:25;;;;;;;25.55;23.75;;;;;;;20.11;100.00;100171.44;5046815;28;20525;-80
2023/07/27 03:18:52;;;;;;;24.98;22.80;;;;;;;20.32;100.00;100166.69;5047269;28;20048;-80
2023/07/27 03:21:19;;;;;;;22.80;20.70;;;;;;;20.61;100.00;100165.13;5046689;28;20406;-80
2023/07/27 03:23:49;;;;;;;23.27;21.30;;;;;;;19.32;100.00;100165.22;5047009;28;20049;-80
2023/07/27 03:26:19;;;;;;;21.63;19.92;;;;;;;19.58;100.00;100179.34;5046746;28;20136;-80
2023/07/27 03:28:46;;;;;;;22.65;20.85;;;;;;;20.72;100.00;100172.78;5043624;28;20055;-79
2023/07/27 03:31:18;;;;;;;22.60;21.00;;;;;;;19.19;100.00;100184.69;5043725;28;20394;-76
2023/07/27 03:33:45;;;;;;;22.08;20.50;;;;;;;19.36;100.00;100185.13;5045754;28;20044;-76
2023/07/27 03:36:12;;;;;;;22.85;21.25;;;;;;;18.91;100.00;100186.09;5046764;28;20045;-76
2023/07/27 03:38:38;;;;;;;24.98;23.25;;;;;;;19.12;100.00;100189.53;5045585;28;20425;-79
2023/07/27 03:41:05;;;;;;;25.98;24.48;;;;;;;20.00;100.00;100183.41;5049026;28;20045;-79
2023/07/27 03:43:32;;;;;;;23.90;22.27;;;;;;;20.63;100.00;100181.78;5041412;28;20045;-79
2023/07/27 03:45:59;;;;;;;22.95;21.25;;;;;;;19.87;100.00;100175.97;5044087;28;20049;-79
2023/07/27 03:48:27;;;;;;;23.52;21.63;;;;;;;19.36;100.00;100174.34;5039884;28;20049;-79
2023/07/27 03:50:54;;;;;;;20.73;19.42;;;;;;;19.52;100.00;100167.00;5049812;28;20402;-80
2023/07/27 03:53:21;;;;;;;21.70;19.85;;;;;;;19.06;100.00;100169.91;5047737;28;20052;-76
2023/07/27 03:55:51;;;;;;;21.20;19.80;;;;;;;19.32;100.00;100176.00;5049785;28;20060;-76
2023/07/27 03:58:18;;;;;;;22.38;20.55;;;;;;;19.92;100.00;100185.91;5049455;28;20436;-76
2023/07/27 04:00:45;;;;;;;22.48;20.85;;;;;;;20.40;100.00;100184.16;5049572;28;20479;-76
2023/07/27 04:03:11;;;;;;;23.25;21.65;;;;;;;20.11;100.00;100173.34;5049107;28;20053;-77
2023/07/27 04:05:40;;;;;;;22.77;21.13;;;;;;;19.92;100.00;100167.84;5049391;28;20425;-76
2023/07/27 04:08:06;;;;;;;22.75;21.15;;;;;;;21.16;100.00;100177.16;5049312;28;20453;-76
2023/07/27 04:10:33;;;;;;;21.55;20.25;;;;;;;19.82;100.00;100189.50;5048060;28;20485;-77
2023/07/27 04:13:00;;;;;;;22.05;20.55;;;;;;;19.60;100.00;100196.03;5040580;28;20052;-77
2023/07/27 04:15:27;;;;;;;22.73;20.85;;;;;;;19.70;100.00;100199.78;5049003;28;20045;-76
2023/07/27 04:17:54;;;;;;;20.25;18.95;;;;;;;19.87;100.00;100200.22;5049556;28;20501;-76
2023/07/27 04:20:21;;;;;;;21.17;19.42;;;;;;;20.14;100.00;100200.53;5045186;28;20095;-75
2023/07/27 04:22:49;;;;;;;19.90;18.50;;;;;;;20.48;100.00;100198.91;5049218;28;20049;-79
2023/07/27 04:25:16;;;;;;;20.23;18.73;;;;;;;20.32;100.00;100195.56;5048251;28;20056;-79
2023/07/27 04:27:43;;;;;;;19.85;18.35;;;;;;;20.07;100.00;100200.06;5049256;28;20048;-76
2023/07/27 04:30:10;;;;;;;20.35;18.83;;;;;;;21.28;100.00;100191.03;5048952;28;20049;-79
2023/07/27 04:32:37;;;;;;;21.17;19.67;;;;;;;20.11;100.00;100205.69;5049230;28;20128;-76
2023/07/27 04:35:06;;;;;;;20.40;18.90;;;;;;;21.14;100.00;100189.31;5048974;28;20053;-79
2023/07/27 04:37:32;;;;;;;21.42;19.88;;;;;;;21.55;100.00;100186.94;5048720;28;20056;-79
2023/07/27 04:40:01;;;;;;;22.10;20.50;;;;;;;21.61;100.00;100187.66;5050586;28;20045;-79
2023/07/27 04:42:27;;;;;;;21.60;20.10;;;;;;;20.36;100.00;100183.94;5053656;28;20051;-77
2023/07/27 04:44:54;;;;;;;21.38;19.98;;;;;;;21.12;100.00;100199.59;5052889;28;20049;-77
2023/07/27 04:47:21;;;;;;;22.05;20.65;;;;;;;21.44;100.00;100205.16;5053728;28;20462;-79
2023/07/27 04:49:48;;;;;;;21.00;19.40;;;;;;;21.48;100.00;100208.91;5053332;28;20044;-78
2023/07/27 04:52:15;;;;;;;21.90;20.30;;;;;;;21.54;100.00;100201.50;5050176;28;20036;-76
2023/07/27 04:54:42;;;;;;;20.10;18.70;;;;;;;22.28;100.00;100207.19;5050444;28;20049;-77
2023/07/27 04:57:10;;;;;;;20.38;18.77;;;;;;;20.99;100.00;100218.09;5049765;28;20056;-79
2023/07/27 04:59:37;;;;;;;21.17;19.63;;;;;;;20.68;100.00;100219.53;5051522;28;20043;-77
2023/07/27 05:02:04;;;;;;;20.90;19.40;;;;;;;20.00;100.00;100236.50;5049049;28;20049;-77
2023/07/27 05:04:31;;;;;;;21.02;19.35;;;;;;;20.12;100.00;100223.47;5048085;28;20056;-78
2023/07/27 05:06:58;;;;;;;21.00;19.55;;;;;;;21.55;100.00;100232.06;5050720;28;20052;-79
2023/07/27 05:09:25;;;;;;;21.98;20.27;;;;;;;20.71;100.00;100233.25;5049717;28;20410;-77
2023/07/27 05:11:54;;;;;;;22.20;20.80;;;;;;;20.54;100.00;100236.34;5047325;28;20087;-79
2023/07/27 05:14:23;;;;;;;21.08;19.77;;;;;;;20.64;100.00;100240.09;5043410;28;20683;-76
2023/07/27 05:16:49;;;;;;;21.92;20.40;;;;;;;20.63;100.00;100247.34;5047189;28;20053;-77
2023/07/27 05:19:16;;;;;;;22.15;20.75;;;;;;;21.30;100.00;100247.44;5045066;28;20135;-76
2023/07/27 05:21:43;;;;;;;21.65;20.20;;;;;;;19.79;100.00;100257.38;5046242;28;20079;-77
2023/07/27 05:24:10;;;;;;;20.90;19.60;;;;;;;19.86;100.00;100258.69;5046482;28;20063;-79
2023/07/27 05:26:37;;;;;;;20.92;19.52;;;;;;;20.41;100.00;100255.88;5044118;28;20048;-79
2023/07/27 05:29:03;;;;;;;22.23;20.92;;;;;;;20.29;100.00;100255.44;5045993;28;20471;-76
2023/07/27 05:31:32;;;;;;;22.10;20.67;;;;;;;19.93;100.00;100271.06;5046367;28;20064;-77
2023/07/27 05:33:58;;;;;;;37.60;35.40;;;;;;;19.96;100.00;100247.03;5045158;28;20050;-77
2023/07/27 05:36:25;;;;;;;36.88;34.78;;;;;;;22.51;100.00;100227.09;5042950;28;20049;-77
2023/07/27 05:38:52;;;;;;;30.73;28.77;;;;;;;21.42;100.00;100234.38;5046588;28;20456;-77
2023/07/27 05:41:19;;;;;;;34.15;31.98;;;;;;;20.64;100.00;100238.19;5043784;28;20041;-79
2023/07/27 05:43:45;;;;;;;32.45;29.50;;;;;;;22.66;100.00;100226.00;5040693;28;20296;-77
2023/07/27 05:46:12;;;;;;;32.58;30.33;;;;;;;20.86;100.00;100239.59;5041515;28;20516;-77
2023/07/27 05:48:41;;;;;;;31.48;29.45;;;;;;;21.07;100.00;100245.56;5047292;28;20491;-77
2023/07/27 05:51:07;;;;;;;29.40;27.33;;;;;;;20.97;100.00;100241.09;5045409;28;20053;-77
2023/07/27 05:53:33;;;;;;;32.72;30.63;;;;;;;20.52;100.00;100238.56;5048873;28;20045;-77
2023/07/27 05:56:00;;;;;;;35.03;32.60;;;;;;;20.81;100.00;100240.44;5048248;28;20544;-77
2023/07/27 05:58:27;;;;;;;37.25;34.90;;;;;;;21.54;100.00;100242.03;5048679;28;20071;-76
2023/07/27 06:01:04;;;;;;;31.77;29.67;;;;;;;20.45;100.00;100243.44;5048048;28;20439;-76
2023/07/27 06:03:32;;;;;;;36.35;34.00;;;;;;;23.11;100.00;100218.13;5044750;28;20491;-77
2023/07/27 06:06:00;;;;;;;36.08;33.60;;;;;;;22.46;100.00;100235.28;5048612;28;20128;-79
2023/07/27 06:08:28;;;;;;;41.13;38.30;;;;;;;21.84;100.00;100238.13;5049200;28;20053;-77
2023/07/27 06:11:04;;;;;;;36.97;34.35;;;;;;;21.51;100.00;100234.50;5046139;28;20060;-77
2023/07/27 06:13:31;;;;;;;35.58;32.95;;;;;;;20.09;100.00;100227.56;5046999;28;20052;-76
2023/07/27 06:15:58;;;;;;;43.05;39.95;;;;;;;20.87;100.00;100216.91;5048350;28;20049;-77
2023/07/27 06:18:25;;;;;;;46.88;43.88;;;;;;;21.89;100.00;100216.41;5048166;28;20057;-77
2023/07/27 06:20:52;;;;;;;46.28;43.35;;;;;;;21.70;100.00;100239.97;5046505;28;20053;-77
2023/07/27 06:23:21;;;;;;;49.50;46.40;;;;;;;21.29;100.00;100237.75;5044717;28;20639;-77
2023/07/27 06:25:49;;;;;;;49.00;46.00;;;;;;;21.12;100.00;100259.00;5038322;28;20056;-77
2023/07/27 06:28:16;;;;;;;42.65;39.85;;;;;;;21.73;100.00;100264.50;5047298;28;20049;-77
2023/07/27 06:30:45;;;;;;;52.17;48.92;;;;;;;19.77;100.00;100260.34;5046556;28;20055;-77
2023/07/27 06:33:12;;;;;;;38.65;36.25;;;;;;;21.92;100.00;100275.31;5031071;28;20420;-77
2023/07/27 06:35:39;;;;;;;44.03;41.53;;;;;;;22.51;100.00;100281.22;5047158;28;20049;-78
2023/07/27 06:38:06;;;;;;;45.38;42.63;;;;;;;20.68;100.00;100305.88;5046054;28;20096;-79
2023/07/27 06:40:34;;;;;;;48.05;45.15;;;;;;;22.89;100.00;100300.03;5043333;28;20053;-77
2023/07/27 06:43:01;;;;;;;52.40;49.08;;;;;;;22.50;100.00;100308.56;5039727;28;20045;-78
2023/07/27 06:45:28;;;;;;;44.28;41.58;;;;;;;23.37;100.00;100313.25;5035964;28;20057;-78
2023/07/27 06:47:55;;;;;;;53.95;50.65;;;;;;;22.32;100.00;100321.81;5044012;28;20067;-77
2023/07/27 06:50:22;;;;;;;54.40;50.95;;;;;;;21.93;100.00;100324.78;5044304;28;20124;-78
2023/07/27 06:52:49;;;;;;;24.00;21.85;;;;;;;21.73;100.00;100317.75;5038519;28;20040;-77
2023/07/27 06:55:17;;;;;;;40.85;38.53;;;;;;;20.90;100.00;100302.69;5043617;28;20048;-77
2023/07/27 06:57:46;;;;;;;34.30;32.05;;;;;;;21.04;100.00;100304.44;5046808;28;20049;-79
2023/07/27 07:00:14;;;;;;;40.00;37.70;;;;;;;21.56;100.00;100307.41;5035476;28;20455;-77
2023/07/27 07:02:41;;;;;;;40.28;38.05;;;;;;;20.78;100.00;100300.38;5043671;28;20057;-77
2023/07/27 07:05:08;;;;;;;41.08;38.50;;;;;;;21.60;100.00;100310.34;5046437;28;20060;-77
2023/07/27 07:07:35;;;;;;;34.05;31.95;;;;;;;22.00;100.00;100300.91;5045806;28;20048;-78
2023/07/27 07:10:02;;;;;;;35.55;33.30;;;;;;;22.01;100.00;100304.41;5038154;28;20473;-78
2023/07/27 07:12:29;;;;;;;36.60;34.30;;;;;;;21.63;100.00;100315.97;5040565;28;20049;-78
2023/07/27 07:14:58;;;;;;;34.58;32.10;;;;;;;22.16;100.00;100302.31;5044247;28;20110;-77
2023/07/27 07:17:24;;;;;;;37.83;35.25;;;;;;;22.84;100.00;100305.53;5041662;28;20406;-77
2023/07/27 07:19:51;;;;;;;39.78;36.97;;;;;;;22.76;100.00;100304.34;5041202;28;20045;-77
2023/07/27 07:22:18;;;;;;;24.23;22.30;;;;;;;22.22;100.00;100313.84;5044333;28;20049;-77
2023/07/27 07:24:45;;;;;;;24.33;22.27;;;;;;;21.31;100.00;100305.78;5045022;28;20075;-77
2023/07/27 07:27:12;;;;;;;25.40;22.88;;;;;;;21.27;100.00;100318.25;5035084;28;20057;-76
2023/07/27 07:29:40;;;;;;;23.67;21.67;;;;;;;21.19;100.00;100313.47;5043378;28;20041;-77
2023/07/27 07:32:09;;;;;;;23.65;21.75;;;;;;;21.28;100.00;100323.38;5042144;28;20460;-76
2023/07/27 07:34:36;;;;;;;21.77;20.17;;;;;;;21.35;100.00;100330.31;5040291;28;20132;-77
2023/07/27 07:37:03;;;;;;;23.10;21.40;;;;;;;21.99;100.00;100330.91;5042206;28;20056;-78
2023/07/27 07:39:30;;;;;;;22.13;20.48;;;;;;;21.68;100.00;100331.31;5042525;28;21294;-78
2023/07/27 07:41:57;;;;;;;21.00;19.60;;;;;;;22.17;100.00;100335.56;5041648;28;20080;-79
2023/07/27 07:44:24;;;;;;;21.55;19.98;;;;;;;22.83;100.00;100337.22;5043358;28;20075;-79
2023/07/27 07:46:51;;;;;;;21.83;20.27;;;;;;;20.56;100.00;100347.50;5040344;28;20076;-78
2023/07/27 07:49:19;;;;;;;22.15;20.55;;;;;;;22.54;100.00;100350.97;5042678;28;20159;-78
2023/07/27 07:51:46;;;;;;;21.60;19.90;;;;;;;22.64;100.00;100348.09;5043150;28;20071;-77
2023/07/27 07:54:13;;;;;;;22.65;20.77;;;;;;;21.76;100.00;100346.09;5040564;28;20081;-77
2023/07/27 07:56:40;;;;;;;22.63;20.92;;;;;;;22.44;100.00;100345.72;5043377;28;20524;-79
2023/07/27 07:59:07;;;;;;;24.38;21.92;;;;;;;22.38;100.00;100342.28;5042699;28;20503;-79
2023/07/27 08:01:34;;;;;;;23.33;21.63;;;;;;;21.40;100.00;100341.91;5038676;28;20049;-80
2023/07/27 08:04:00;;;;;;;22.88;21.38;;;;;;;21.74;100.00;100340.97;5044400;28;20044;-78
2023/07/27 08:06:29;;;;;;;26.15;23.85;;;;;;;22.98;100.00;100324.56;5042741;28;20040;-77
2023/07/27 08:08:58;;;;;;;24.90;22.80;;;;;;;23.11;100.00;100333.81;5037638;28;20034;-78
2023/07/27 08:11:25;;;;;;;25.98;23.88;;;;;;;22.24;100.00;100336.00;5042390;28;20055;-79
2023/07/27 08:13:52;;;;;;;24.52;22.33;;;;;;;22.62;100.00;100339.47;5039855;28;20049;-78
2023/07/27 08:16:19;;;;;;;34.65;22.17;;;;;;;21.66;100.00;100345.09;5047406;28;20573;-78
2023/07/27 08:18:46;;;;;;;21.95;20.25;;;;;;;23.40;100.00;100347.09;5041920;28;20498;-78
2023/07/27 08:21:13;;;;;;;25.95;23.75;;;;;;;21.65;100.00;100358.91;5048783;28;20448;-79
2023/07/27 08:23:41;;;;;;;24.50;22.50;;;;;;;21.94;100.00;100359.63;5046929;28;20111;-77
2023/07/27 08:26:09;;;;;;;22.17;20.58;;;;;;;21.95;100.00;100366.66;5042068;28;20045;-78
2023/07/27 08:28:36;;;;;;;22.88;21.17;;;;;;;22.37;100.00;100370.44;5044527;28;20048;-78
2023/07/27 08:31:04;;;;;;;22.80;21.20;;;;;;;21.90;100.00;100369.41;5048344;28;20496;-78
2023/07/27 08:33:31;;;;;;;21.67;20.08;;;;;;;22.58;100.00;100381.75;5048108;28;20501;-78
2023/07/27 08:35:58;;;;;;;21.95;20.00;;;;;;;21.81;100.00;100378.44;5045979;28;20577;-77
2023/07/27 08:38:25;;;;;;;20.75;19.30;;;;;;;21.48;100.00;100378.28;5046063;28;20076;-78
2023/07/27 08:40:57;;;;;;;21.88;20.17;;;;;;;21.01;100.00;100371.69;5048751;28;20996;-78
2023/07/27 08:43:24;;;;;;;22.73;20.92;;;;;;;20.27;100.00;100373.53;5044975;28;20048;-78
2023/07/27 08:45:52;;;;;;;22.67;20.75;;;;;;;20.23;100.00;100377.91;5042790;28;20049;-78
2023/07/27 08:48:20;;;;;;;23.20;21.40;;;;;;;19.66;100.00;100374.63;5047174;28;20053;-79
2023/07/27 08:50:48;;;;;;;24.13;22.13;;;;;;;20.43;100.00;100379.69;5049895;28;20471;-78
2023/07/27 08:53:16;;;;;;;24.67;22.70;;;;;;;20.91;100.00;100374.47;5044890;28;20068;-79
2023/07/27 08:55:43;;;;;;;23.95;22.15;;;;;;;20.64;100.00;100383.88;5042121;28;20052;-78
2023/07/27 08:58:12;;;;;;;24.77;22.98;;;;;;;20.73;100.00;100389.47;5046131;28;20060;-79
2023/07/27 09:00:39;;;;;;;25.45;23.30;;;;;;;20.66;100.00;100388.97;5046357;28;20045;-78
2023/07/27 09:03:07;;;;;;;25.02;22.92;;;;;;;20.80;100.00;100381.88;5044649;28;20052;-78
2023/07/27 09:05:39;;;;;;;24.67;22.73;;;;;;;20.33;100.00;100385.91;5048010;28;20049;-78
2023/07/27 09:08:07;;;;;;;23.47;21.87;;;;;;;20.14;100.00;100370.38;5047079;28;20505;-78
2023/07/27 09:10:34;;;;;;;23.00;21.20;;;;;;;20.04;100.00;100365.06;5047751;28;20978;-78
2023/07/27 09:13:02;;;;;;;23.08;21.42;;;;;;;20.76;100.00;100353.84;5028217;28;20586;-77
2023/07/27 09:15:33;;;;;;;22.92;20.85;;;;;;;20.48;100.00;100349.94;5047083;28;20045;-77
2023/07/27 09:18:01;;;;;;;22.55;20.95;;;;;;;20.59;100.00;100352.34;5045577;28;20509;-77
2023/07/27 09:20:29;;;;;;;22.33;20.52;;;;;;;20.33;100.00;100367.88;5045656;28;20048;-77
2023/07/27 09:22:57;;;;;;;24.73;22.67;;;;;;;20.38;100.00;100358.94;5048055;28;20622;-77
2023/07/27 09:25:24;;;;;;;24.02;22.05;;;;;;;20.49;100.00;100363.19;5045618;28;20040;-77
2023/07/27 09:27:54;;;;;;;20.85;18.98;;;;;;;20.74;100.00;100358.72;5048714;28;20071;-77
2023/07/27 09:30:21;;;;;;;22.13;20.33;;;;;;;22.26;100.00;100363.56;5048368;28;20044;-78
2023/07/27 09:32:51;;;;;;;20.83;19.35;;;;;;;20.77;100.00;100372.44;5047804;28;20045;-77
2023/07/27 09:35:21;;;;;;;20.30;18.70;;;;;;;20.61;100.00;100370.94;5048293;28;20049;-77
2023/07/27 09:37:50;;;;;;;22.17;20.27;;;;;;;21.70;100.00;100370.47;5048426;28;20049;-79
2023/07/27 09:40:19;;;;;;;22.15;20.25;;;;;;;21.15;100.00;100366.44;5048266;28;20056;-79
2023/07/27 09:42:46;;;;;;;21.35;19.75;;;;;;;21.05;100.00;100376.22;5049329;28;20512;-80
2023/07/27 09:45:14;;;;;;;22.00;20.25;;;;;;;21.48;100.00;100371.00;5048560;28;20052;-79
2023/07/27 09:47:42;;;;;;;21.83;19.92;;;;;;;22.06;100.00;100366.50;5047686;28;20056;-77
2023/07/27 09:50:11;;;;;;;22.35;20.42;;;;;;;23.18;100.00;100354.00;5047421;28;20420;-78
2023/07/27 09:52:39;;;;;;;24.77;23.08;;;;;;;23.13;100.00;100354.06;5048651;28;20045;-76
2023/07/27 09:55:07;;;;;;;22.70;21.00;;;;;;;23.86;100.00;100355.13;5047997;28;20556;-77
2023/07/27 09:57:34;;;;;;;23.65;21.50;;;;;;;22.80;100.00;100353.28;5042708;28;20537;-77
2023/07/27 10:00:04;;;;;;;22.20;20.60;;;;;;;22.57;100.00;100344.16;5041845;28;20052;-77
2023/07/27 10:02:31;;;;;;;25.15;23.45;;;;;;;23.21;100.00;100341.75;5045634;28;20064;-77
2023/07/27 10:04:58;;;;;;;23.60;21.80;;;;;;;24.27;100.00;100337.97;5043360;28;20048;-77
2023/07/27 10:07:27;;;;;;;22.63;21.13;;;;;;;23.96;100.00;100351.38;5044317;28;20041;-79
2023/07/27 10:10:24;;;;;;;21.67;20.02;;;;;;;23.23;100.00;100356.59;5037375;28;20051;-78
2023/07/27 10:12:51;;;;;;;22.60;20.70;;;;;;;22.57;100.00;100363.09;5041531;28;20299;-78
2023/07/27 10:15:25;;;;;;;22.17;20.48;;;;;;;23.72;100.00;100357.03;5042183;28;20036;-78
2023/07/27 10:17:56;;;;;;;23.58;21.88;;;;;;;23.31;100.00;100355.09;5037490;28;20057;-78
2023/07/27 10:20:26;;;;;;;21.98;19.92;;;;;;;23.04;100.00;100355.88;5045418;28;20357;-77
2023/07/27 10:23:09;;;;;;;24.85;22.92;;;;;;;23.19;100.00;100349.38;5044627;28;20037;-79
2023/07/27 10:26:04;;;;;;;24.13;22.02;;;;;;;22.21;100.00;100366.34;5042271;28;20131;-78
2023/07/27 10:28:33;;;;;;;23.20;21.05;;;;;;;22.17;100.00;100358.00;5041442;28;20136;-78
2023/07/27 10:31:19;;;;;;;24.42;22.42;;;;;;;22.23;100.00;100358.72;5046371;28;20088;-78
2023/07/27 10:33:47;;;;;;;24.23;22.17;;;;;;;22.30;100.00;100355.66;5046645;28;20452;-78
2023/07/27 10:36:14;;;;;;;24.17;22.27;;;;;;;21.63;100.00;100351.09;5046019;28;20572;-78
2023/07/27 10:38:51;;;;;;;23.45;21.75;;;;;;;22.03;100.00;100346.28;5042102;28;20053;-78
2023/07/27 10:41:21;;;;;;;24.20;22.05;;;;;;;22.05;100.00;100338.66;5041986;28;20425;-77
2023/07/27 10:44:16;;;;;;;36.30;33.58;;;;;;;21.78;100.00;100342.00;5047759;28;20045;-77
2023/07/27 10:46:47;;;;;;;38.25;35.50;;;;;;;21.91;100.00;100338.59;5042156;28;20073;-77
2023/07/27 10:49:16;;;;;;;35.03;32.70;;;;;;;21.86;100.00;100338.66;5046229;28;20049;-77
2023/07/27 10:51:44;;;;;;;32.08;30.02;;;;;;;21.78;100.00;100338.50;5038943;28;20486;-77
2023/07/27 10:54:13;;;;;;;33.08;30.98;;;;;;;21.94;100.00;100334.50;5041169;28;20037;-77
2023/07/27 10:56:42;;;;;;;36.28;33.80;;;;;;;22.41;100.00;100344.38;5043711;28;20052;-77
2023/07/27 10:59:13;;;;;;;24.45;22.48;;;;;;;22.03;100.00;100342.75;5045929;28;20049;-77
2023/07/27 11:01:40;;;;;;;24.60;22.70;;;;;;;22.46;100.00;100345.44;5040792;28;20056;-77
2023/07/27 11:04:08;;;;;;;24.60;22.25;;;;;;;22.32;100.00;100348.06;5041295;28;20051;-77
2023/07/27 11:06:42;;;;;;;28.60;26.45;;;;;;;22.58;100.00;100345.78;5042407;28;20054;-77
2023/07/27 11:09:19;;;;;;;32.35;30.15;;;;;;;26.67;100.00;100344.16;5043894;28;20068;-68